Time;durP1;ratioP1;P1;durP2;ratioP2;P2;SDS_P1;SDS_P2;PMS_P1;PMS_P2;Temp;Humidity;BMP_temperature;BMP_pressure;BME280_temperature;BME280_humidity;BME280_pressure;Samples;Min_cycle;Max_cycle;Signal;HPM_P1;HPM_P2
2022/09/28 00:00:07;;;;;;;17.10;15.33;;;;;;;;;;5059140;28;20189;-81
2022/09/28 00:02:34;;;;;;;16.53;14.83;;;;;;;;;;5058906;28;20207;-84
2022/09/28 00:05:01;;;;;;;16.37;14.23;;;;;;;;;;5059153;28;20178;-81
2022/09/28 00:07:27;;;;;;;16.73;14.93;;;;;;;;;;5076467;28;20194;-81
2022/09/28 00:09:53;;;;;;;17.40;15.60;;;;;;;;;;5059046;28;20171;-80
2022/09/28 00:12:20;;;;;;;16.87;15.17;;;;;;;;;;5042065;28;20184;-81
2022/09/28 00:14:46;;;;;;;17.50;15.77;;;;;;;;;;5044835;28;20207;-81
2022/09/28 00:17:14;;;;;;;16.37;14.67;;;;;;;;;;5035914;28;20183;-81
2022/09/28 00:19:41;;;;;;;16.30;14.67;;;;;;;;;;5059109;28;20179;-83
2022/09/28 00:22:07;;;;;;;17.80;15.37;;;;;;;;;;5029896;28;20215;-84
2022/09/28 00:24:33;;;;;;;17.33;15.53;;;;;;;;;;5022470;28;20184;-84
2022/09/28 00:27:01;;;;;;;17.47;14.87;;;;;;;;;;5022499;28;20215;-84
2022/09/28 00:29:27;;;;;;;17.87;15.97;;;;;;;;;;5041896;28;20199;-84
2022/09/28 00:31:58;;;;;;;16.73;14.97;;;;;;;;;;5052458;28;20176;-84
2022/09/28 00:34:24;;;;;;;18.70;15.60;;;;;;;;;;5063513;28;20249;-83
2022/09/28 00:36:50;;;;;;;17.03;15.03;;;;;;;;;;5071337;28;20180;-84
2022/09/28 00:39:17;;;;;;;17.13;15.30;;;;;;;;;;5021783;28;20274;-84
2022/09/28 00:41:43;;;;;;;17.07;15.37;;;;;;;;;;5038074;28;20252;-84
2022/09/28 00:44:31;;;;;;;16.63;14.90;;;;;;;;;;5038017;28;20335;-84
2022/09/28 00:47:17;;;;;;;16.77;14.77;;;;;;;;;;5037945;28;20226;-84
2022/09/28 00:49:43;;;;;;;16.27;14.63;;;;;;;;;;5037919;28;20195;-84
2022/09/28 00:52:12;;;;;;;17.97;16.07;;;;;;;;;;5046422;28;20228;-84
2022/09/28 00:54:39;;;;;;;18.27;15.03;;;;;;;;;;5058223;28;20179;-88
2022/09/28 00:57:05;;;;;;;18.70;15.43;;;;;;;;;;5033533;28;20206;-89
2022/09/28 00:59:31;;;;;;;18.97;15.83;;;;;;;;;;5038411;28;20203;-89
2022/09/28 01:01:58;;;;;;;17.70;15.77;;;;;;;;;;5044669;28;20203;-89
2022/09/28 01:04:24;;;;;;;18.70;15.23;;;;;;;;;;5076191;28;20250;-89
2022/09/28 01:06:50;;;;;;;20.80;16.13;;;;;;;;;;5045249;28;20187;-88
2022/09/28 01:09:17;;;;;;;23.03;16.40;;;;;;;;;;5022576;28;20180;-89
2022/09/28 01:11:43;;;;;;;19.20;16.47;;;;;;;;;;5021031;28;20188;-84
2022/09/28 01:14:11;;;;;;;20.17;17.20;;;;;;;;;;5021359;28;20180;-89
2022/09/28 01:16:52;;;;;;;21.77;17.37;;;;;;;;;;5037680;28;20183;-89
2022/09/28 01:19:35;;;;;;;18.97;16.43;;;;;;;;;;5037614;28;20176;-89
2022/09/28 01:22:07;;;;;;;18.60;16.60;;;;;;;;;;5037404;28;20210;-81
2022/09/28 01:24:36;;;;;;;18.87;16.87;;;;;;;;;;5055174;28;20180;-80
2022/09/28 01:27:10;;;;;;;21.30;17.83;;;;;;;;;;5037683;28;20176;-84
2022/09/28 01:29:48;;;;;;;19.73;17.60;;;;;;;;;;5037668;28;20267;-84
2022/09/28 01:32:20;;;;;;;19.73;17.60;;;;;;;;;;5037532;28;20190;-84
2022/09/28 01:34:54;;;;;;;20.57;17.67;;;;;;;;;;5054988;28;20184;-84
2022/09/28 01:37:21;;;;;;;22.00;18.27;;;;;;;;;;5040215;28;20265;-84
2022/09/28 01:39:49;;;;;;;22.73;18.23;;;;;;;;;;5074925;28;20273;-84
2022/09/28 01:42:18;;;;;;;21.40;17.90;;;;;;;;;;5057048;28;20207;-89
2022/09/28 01:44:47;;;;;;;23.20;18.73;;;;;;;;;;5057459;28;20198;-84
2022/09/28 01:47:14;;;;;;;21.17;18.87;;;;;;;;;;5056874;28;20182;-84
2022/09/28 01:49:43;;;;;;;26.23;19.60;;;;;;;;;;5074631;28;20175;-84
2022/09/28 01:52:09;;;;;;;21.87;18.97;;;;;;;;;;5057002;28;20179;-84
2022/09/28 01:54:58;;;;;;;23.10;17.77;;;;;;;;;;5036924;28;20194;-84
2022/09/28 01:57:28;;;;;;;21.47;18.50;;;;;;;;;;5026657;28;20185;-84
2022/09/28 02:00:00;;;;;;;22.67;18.23;;;;;;;;;;5036654;28;20270;-84
2022/09/28 02:02:31;;;;;;;24.00;18.47;;;;;;;;;;5054303;28;20353;-84
2022/09/28 02:04:59;;;;;;;21.70;18.23;;;;;;;;;;5036920;28;20176;-84
2022/09/28 02:07:41;;;;;;;22.33;18.17;;;;;;;;;;5037573;28;20208;-83
2022/09/28 02:10:10;;;;;;;23.13;18.00;;;;;;;;;;5054188;28;20168;-83
2022/09/28 02:12:46;;;;;;;22.03;17.97;;;;;;;;;;5037513;28;20183;-84
2022/09/28 02:15:20;;;;;;;22.70;18.50;;;;;;;;;;5050317;28;20195;-84
2022/09/28 02:17:46;;;;;;;22.00;17.33;;;;;;;;;;5036416;28;20193;-83
2022/09/28 02:20:12;;;;;;;26.20;18.27;;;;;;;;;;5020063;28;20234;-84
2022/09/28 02:22:42;;;;;;;22.47;17.90;;;;;;;;;;5035489;28;20203;-83
2022/09/28 02:25:10;;;;;;;26.40;18.23;;;;;;;;;;5036748;28;20180;-84
2022/09/28 02:28:03;;;;;;;21.83;18.13;;;;;;;;;;5036747;28;20212;-83
2022/09/28 02:30:30;;;;;;;22.30;18.37;;;;;;;;;;5050230;28;20196;-83
2022/09/28 02:32:59;;;;;;;24.30;18.07;;;;;;;;;;5036811;28;20211;-83
2022/09/28 02:35:25;;;;;;;24.47;17.93;;;;;;;;;;5036324;28;20199;-84
2022/09/28 02:37:51;;;;;;;23.83;18.07;;;;;;;;;;5020178;28;20226;-83
2022/09/28 02:40:28;;;;;;;24.00;18.47;;;;;;;;;;5036095;28;20289;-84
2022/09/28 02:42:57;;;;;;;25.50;19.53;;;;;;;;;;5054099;28;20210;-83
2022/09/28 02:45:30;;;;;;;27.30;19.23;;;;;;;;;;5074025;28;20178;-83
2022/09/28 02:48:16;;;;;;;26.07;19.27;;;;;;;;;;5056206;28;20175;-83
2022/09/28 02:51:02;;;;;;;24.60;20.03;;;;;;;;;;5039786;28;20192;-81
2022/09/28 02:53:43;;;;;;;27.37;20.17;;;;;;;;;;5026278;28;20211;-80
2022/09/28 02:56:19;;;;;;;23.07;19.97;;;;;;;;;;5045118;28;20182;-80
2022/09/28 02:58:53;;;;;;;25.53;21.07;;;;;;;;;;5056602;28;20175;-83
2022/09/28 03:01:38;;;;;;;25.17;20.63;;;;;;;;;;5056255;28;20181;-83
2022/09/28 03:04:13;;;;;;;24.77;21.07;;;;;;;;;;5055992;28;20263;-83
2022/09/28 03:06:58;;;;;;;25.67;20.83;;;;;;;;;;5060536;28;20186;-83
2022/09/28 03:09:34;;;;;;;26.00;20.90;;;;;;;;;;5036398;28;20180;-84
2022/09/28 03:12:06;;;;;;;25.67;20.57;;;;;;;;;;5036694;28;20184;-84
2022/09/28 03:14:32;;;;;;;24.23;20.27;;;;;;;;;;5045775;28;20183;-81
2022/09/28 03:16:58;;;;;;;27.07;20.43;;;;;;;;;;5024307;28;20333;-80
2022/09/28 03:19:26;;;;;;;27.03;20.47;;;;;;;;;;5029751;28;20215;-81
2022/09/28 03:21:53;;;;;;;24.33;20.37;;;;;;;;;;5055782;28;20302;-81
2022/09/28 03:24:19;;;;;;;25.00;20.53;;;;;;;;;;5039360;28;20253;-84
2022/09/28 03:26:45;;;;;;;28.63;20.83;;;;;;;;;;5056240;28;20180;-84
2022/09/28 03:29:11;;;;;;;23.27;18.93;;;;;;;;;;5051089;28;20192;-84
2022/09/28 03:31:37;;;;;;;22.93;19.40;;;;;;;;;;5053481;28;20307;-84
2022/09/28 03:34:03;;;;;;;23.33;19.93;;;;;;;;;;5021243;28;20218;-83
2022/09/28 03:36:29;;;;;;;22.47;19.87;;;;;;;;;;5039547;28;20187;-84
2022/09/28 03:38:55;;;;;;;21.23;18.67;;;;;;;;;;5039470;28;20227;-84
2022/09/28 03:41:23;;;;;;;20.23;17.87;;;;;;;;;;5023036;28;20184;-88
2022/09/28 03:43:48;;;;;;;20.87;17.93;;;;;;;;;;5039739;28;20207;-88
2022/09/28 03:46:15;;;;;;;23.13;16.97;;;;;;;;;;5058946;28;20183;-81
2022/09/28 03:48:41;;;;;;;15.90;14.10;;;;;;;;;;5058976;28;20175;-83
2022/09/28 03:51:08;;;;;;;17.17;15.47;;;;;;;;;;5056055;28;20176;-84
2022/09/28 03:53:34;;;;;;;18.23;16.33;;;;;;;;;;5059041;28;20233;-83
2022/09/28 03:56:04;;;;;;;17.33;15.33;;;;;;;;;;5043350;28;20210;-83
2022/09/28 03:58:30;;;;;;;17.30;14.53;;;;;;;;;;5039209;28;20184;-88
2022/09/28 04:01:01;;;;;;;18.00;15.20;;;;;;;;;;5056150;28;20187;-89
2022/09/28 04:03:27;;;;;;;20.37;15.40;;;;;;;;;;5053760;28;20265;-90
2022/09/28 04:05:54;;;;;;;16.70;14.13;;;;;;;;;;5022832;28;20188;-88
2022/09/28 04:08:20;;;;;;;15.60;13.90;;;;;;;;;;5056691;28;20176;-90
2022/09/28 04:10:46;;;;;;;16.60;13.80;;;;;;;;;;5038871;28;20184;-84
2022/09/28 04:13:12;;;;;;;17.47;14.10;;;;;;;;;;5022587;28;20184;-88
2022/09/28 04:15:38;;;;;;;15.27;13.67;;;;;;;;;;5039333;28;20180;-88
2022/09/28 04:18:08;;;;;;;15.60;12.93;;;;;;;;;;5026927;28;20187;-88
2022/09/28 04:20:34;;;;;;;15.27;13.33;;;;;;;;;;5050849;28;20278;-89
2022/09/28 04:23:00;;;;;;;13.87;12.47;;;;;;;;;;5042436;28;20242;-89
2022/09/28 04:25:26;;;;;;;15.90;13.40;;;;;;;;;;5034939;28;20275;-90
2022/09/28 04:30:46;;;;;;;14.60;12.20;;;;;;;;;;5056360;28;20276;-84
2022/09/28 04:33:12;;;;;;;14.63;12.53;;;;;;;;;;5038573;28;20184;-84
2022/09/28 04:35:38;;;;;;;13.53;12.17;;;;;;;;;;5021951;28;20191;-84
2022/09/28 04:38:04;;;;;;;13.63;11.43;;;;;;;;;;5021952;28;20184;-84
2022/09/28 04:40:30;;;;;;;13.40;12.00;;;;;;;;;;5018586;28;20323;-84
2022/09/28 04:42:56;;;;;;;10.02;7.78;;;;;;;;;;5017690;28;20532;-84
2022/09/28 04:45:24;;;;;;;12.07;10.80;;;;;;;;;;5034834;28;20183;-84
2022/09/28 04:47:51;;;;;;;12.13;10.47;;;;;;;;;;5035134;28;20239;-84
2022/09/28 04:50:17;;;;;;;9.97;8.93;;;;;;;;;;5035035;28;20184;-84
2022/09/28 04:52:43;;;;;;;10.37;9.13;;;;;;;;;;5018214;28;20188;-84
2022/09/28 04:55:12;;;;;;;10.67;8.70;;;;;;;;;;5034842;28;20177;-83
2022/09/28 04:57:38;;;;;;;10.47;9.47;;;;;;;;;;5034509;28;20180;-83
2022/09/28 05:00:04;;;;;;;9.77;8.80;;;;;;;;;;5034494;28;20187;-83
2022/09/28 05:02:31;;;;;;;11.63;9.00;;;;;;;;;;5014722;28;20217;-84
2022/09/28 05:04:57;;;;;;;11.23;9.00;;;;;;;;;;5015528;28;20165;-84
2022/09/28 05:07:24;;;;;;;10.93;9.27;;;;;;;;;;5033650;28;20231;-84
2022/09/28 05:09:50;;;;;;;13.67;9.33;;;;;;;;;;5034388;28;20177;-83
2022/09/28 05:12:16;;;;;;;11.63;9.60;;;;;;;;;;5034792;28;20180;-84
2022/09/28 05:14:42;;;;;;;14.48;12.10;;;;;;;;;;5033525;28;20445;-83
2022/09/28 05:17:09;;;;;;;11.47;10.27;;;;;;;;;;5034487;28;20223;-83
2022/09/28 05:19:35;;;;;;;11.60;9.20;;;;;;;;;;5034292;28;20184;-83
2022/09/28 05:22:06;;;;;;;14.10;9.90;;;;;;;;;;5018115;28;20258;-87
2022/09/28 05:24:32;;;;;;;9.63;8.73;;;;;;;;;;5018283;28;20268;-87
2022/09/28 05:26:58;;;;;;;9.77;8.77;;;;;;;;;;5033990;28;20200;-88
2022/09/28 05:29:24;;;;;;;11.23;9.33;;;;;;;;;;5034331;28;20173;-88
2022/09/28 05:31:50;;;;;;;11.80;9.00;;;;;;;;;;5034071;28;20196;-87
2022/09/28 05:34:16;;;;;;;11.40;9.17;;;;;;;;;;5017952;28;20192;-87
2022/09/28 05:36:44;;;;;;;10.23;8.77;;;;;;;;;;5033993;28;20184;-83
2022/09/28 05:39:10;;;;;;;11.10;9.43;;;;;;;;;;5040767;28;20224;-83
2022/09/28 05:41:36;;;;;;;11.27;9.20;;;;;;;;;;5053655;28;20208;-83
2022/09/28 05:44:02;;;;;;;12.37;9.00;;;;;;;;;;5038293;28;20180;-83
2022/09/28 05:46:28;;;;;;;11.37;9.77;;;;;;;;;;5037342;28;20214;-83
2022/09/28 05:48:54;;;;;;;13.73;9.40;;;;;;;;;;5037540;28;20180;-83
2022/09/28 05:51:20;;;;;;;12.03;9.43;;;;;;;;;;5053583;28;20183;-83
2022/09/28 05:53:46;;;;;;;11.37;9.80;;;;;;;;;;5053532;28;20183;-84
2022/09/28 05:56:12;;;;;;;13.50;10.03;;;;;;;;;;5037362;28;20213;-84
2022/09/28 05:58:38;;;;;;;12.00;10.50;;;;;;;;;;5053666;28;20233;-84
2022/09/28 06:01:04;;;;;;;13.00;10.37;;;;;;;;;;5037034;28;20180;-83
2022/09/28 06:03:30;;;;;;;12.30;10.33;;;;;;;;;;5053487;28;20215;-83
2022/09/28 06:06:00;;;;;;;11.97;10.67;;;;;;;;;;5053625;28;20177;-83
2022/09/28 06:08:26;;;;;;;12.70;11.03;;;;;;;;;;5054864;28;20172;-83
2022/09/28 06:10:52;;;;;;;15.53;10.80;;;;;;;;;;5036883;28;20183;-83
2022/09/28 06:13:18;;;;;;;12.47;11.03;;;;;;;;;;5054466;28;20226;-83
2022/09/28 06:15:45;;;;;;;11.83;10.70;;;;;;;;;;5053370;28;20183;-84
2022/09/28 06:18:15;;;;;;;14.00;10.47;;;;;;;;;;5053318;28;20271;-83
2022/09/28 06:20:42;;;;;;;12.77;10.63;;;;;;;;;;5054219;28;20175;-83
2022/09/28 06:23:08;;;;;;;11.43;10.23;;;;;;;;;;5036596;28;20219;-83
2022/09/28 06:25:34;;;;;;;13.30;10.50;;;;;;;;;;5037252;28;20176;-83
2022/09/28 06:28:01;;;;;;;11.63;10.43;;;;;;;;;;5053365;28;20182;-87
2022/09/28 06:30:28;;;;;;;11.77;10.17;;;;;;;;;;5053026;28;20179;-88
2022/09/28 06:32:55;;;;;;;11.63;8.80;;;;;;;;;;5053198;28;20210;-88
2022/09/28 06:35:22;;;;;;;13.67;12.33;;;;;;;;;;5052865;28;20404;-87
2022/09/28 06:37:48;;;;;;;11.77;10.60;;;;;;;;;;5052827;28;20472;-88
2022/09/28 06:40:14;;;;;;;14.20;11.33;;;;;;;;;;5036145;28;20235;-88
2022/09/28 06:42:40;;;;;;;10.23;9.23;;;;;;;;;;5052984;28;20290;-88
2022/09/28 06:45:07;;;;;;;10.50;9.43;;;;;;;;;;5053316;28;20180;-88
2022/09/28 06:47:34;;;;;;;11.33;10.07;;;;;;;;;;5052919;28;20175;-88
2022/09/28 06:50:00;;;;;;;10.63;9.57;;;;;;;;;;5036495;28;20180;-88
2022/09/28 06:52:26;;;;;;;10.07;9.17;;;;;;;;;;5049726;28;20203;-88
2022/09/28 06:54:52;;;;;;;11.67;9.33;;;;;;;;;;5071139;22;20230;-83
2022/09/28 06:57:18;;;;;;;9.67;8.70;;;;;;;;;;5073594;28;20179;-83
2022/09/28 06:59:44;;;;;;;10.83;8.63;;;;;;;;;;5069200;28;20207;-87
2022/09/28 07:02:14;;;;;;;10.13;9.10;;;;;;;;;;5035904;28;20254;-88
2022/09/28 07:04:41;;;;;;;10.10;8.63;;;;;;;;;;5036236;28;20184;-88
2022/09/28 07:07:09;;;;;;;10.97;7.90;;;;;;;;;;5052705;28;20183;-87
2022/09/28 07:09:35;;;;;;;9.63;7.73;;;;;;;;;;5055328;28;20176;-80
2022/09/28 07:12:03;;;;;;;9.17;7.37;;;;;;;;;;5039656;28;20191;-81
2022/09/28 07:14:30;;;;;;;9.70;7.43;;;;;;;;;;5057200;28;20228;-80
2022/09/28 07:16:56;;;;;;;7.60;6.80;;;;;;;;;;5050635;28;20226;-87
2022/09/28 07:19:22;;;;;;;7.67;6.93;;;;;;;;;;5058536;28;20184;-88
2022/09/28 07:21:48;;;;;;;8.97;8.03;;;;;;;;;;5060076;28;20211;-89
2022/09/28 07:24:14;;;;;;;7.97;7.17;;;;;;;;;;5076467;28;20195;-88
2022/09/28 07:26:40;;;;;;;9.77;7.37;;;;;;;;;;5059778;28;20183;-88
2022/09/28 07:29:06;;;;;;;8.40;6.80;;;;;;;;;;5059621;28;20187;-89
2022/09/28 07:31:33;;;;;;;6.47;5.87;;;;;;;;;;5076247;28;20229;-89
2022/09/28 07:33:59;;;;;;;9.53;6.40;;;;;;;;;;5059731;28;20190;-88
2022/09/28 07:36:25;;;;;;;6.73;5.60;;;;;;;;;;5059798;28;20175;-87
2022/09/28 07:38:51;;;;;;;5.90;5.30;;;;;;;;;;5059424;28;20221;-89
2022/09/28 07:41:30;;;;;;;6.00;4.97;;;;;;;;;;5076408;28;20207;-87
2022/09/28 07:43:57;;;;;;;6.13;4.90;;;;;;;;;;5076960;28;20167;-84
2022/09/28 07:46:23;;;;;;;5.80;5.27;;;;;;;;;;5059509;28;20265;-83
2022/09/28 07:48:50;;;;;;;6.37;4.80;;;;;;;;;;5076287;28;20224;-83
2022/09/28 07:51:18;;;;;;;5.43;4.57;;;;;;;;;;5059261;28;20179;-84
2022/09/28 07:53:45;;;;;;;5.33;4.87;;;;;;;;;;5059394;28;20227;-84
2022/09/28 07:56:12;;;;;;;4.90;4.37;;;;;;;;;;5075803;28;20168;-84
2022/09/28 07:58:39;;;;;;;4.53;3.00;;;;;;;;;;5059564;28;20183;-83
2022/09/28 08:01:06;;;;;;;4.23;3.80;;;;;;;;;;5075594;28;20270;-80
2022/09/28 08:03:32;;;;;;;4.83;3.20;;;;;;;;;;5075410;28;20286;-81
2022/09/28 08:06:02;;;;;;;4.30;2.77;;;;;;;;;;5076828;28;20240;-81
2022/09/28 08:08:29;;;;;;;8.73;2.70;;;;;;;;;;5076709;28;20175;-80
2022/09/28 08:10:56;;;;;;;2.73;2.53;;;;;;;;;;5076830;28;20197;-81
2022/09/28 08:13:24;;;;;;;2.40;2.20;;;;;;;;;;5077178;28;20182;-81
2022/09/28 08:15:50;;;;;;;2.97;2.30;;;;;;;;;;5059380;28;20183;-81
2022/09/28 08:18:17;;;;;;;3.27;2.30;;;;;;;;;;5075718;28;20228;-81
2022/09/28 08:23:27;;;;;;;2.53;2.10;;;;;;;;;;5075679;28;20264;-81
2022/09/28 08:25:53;;;;;;;2.07;1.87;;;;;;;;;;5076494;28;20164;-84
2022/09/28 08:28:21;;;;;;;3.07;1.70;;;;;;;;;;5075248;28;20286;-84
2022/09/28 08:30:47;;;;;;;1.50;1.40;;;;;;;;;;5075258;28;20172;-84
2022/09/28 08:33:14;;;;;;;2.43;1.50;;;;;;;;;;5076506;28;20186;-84
2022/09/28 08:35:40;;;;;;;2.80;1.50;;;;;;;;;;5075483;28;20175;-81
2022/09/28 08:38:07;;;;;;;1.93;1.37;;;;;;;;;;5074256;28;20236;-87
2022/09/28 08:40:54;;;;;;;2.40;1.20;;;;;;;;;;5075091;28;20175;-85
2022/09/28 08:43:31;;;;;;;4.27;1.23;;;;;;;;;;5068720;28;20222;-85
2022/09/28 08:45:58;;;;;;;2.10;1.20;;;;;;;;;;5075675;28;20203;-88
2022/09/28 08:48:47;;;;;;;2.73;1.30;;;;;;;;;;5074655;28;20186;-89
2022/09/28 08:51:51;;;;;;;1.93;1.30;;;;;;;;;;5075142;28;20206;-87
2022/09/28 08:54:25;;;;;;;1.70;1.30;;;;;;;;;;5036650;28;20227;-89
2022/09/28 08:56:56;;;;;;;2.80;1.50;;;;;;;;;;5037183;28;20176;-84
2022/09/28 08:59:24;;;;;;;1.63;1.10;;;;;;;;;;5056705;28;20190;-84
2022/09/28 09:01:54;;;;;;;2.83;1.20;;;;;;;;;;5074727;28;20210;-84
2022/09/28 09:04:21;;;;;;;1.73;1.10;;;;;;;;;;5074509;28;20256;-84
2022/09/28 09:06:55;;;;;;;2.90;1.10;;;;;;;;;;5075383;28;20167;-84
2022/09/28 09:09:27;;;;;;;2.53;1.03;;;;;;;;;;5074481;28;20175;-84
2022/09/28 09:12:08;;;;;;;2.47;1.10;;;;;;;;;;5074221;28;20266;-84
2022/09/28 09:14:45;;;;;;;1.70;1.17;;;;;;;;;;5075500;28;20230;-88
2022/09/28 09:17:20;;;;;;;2.40;1.10;;;;;;;;;;5075316;28;20186;-89
2022/09/28 09:19:53;;;;;;;1.60;1.00;;;;;;;;;;5075481;28;20205;-84
2022/09/28 09:22:26;;;;;;;1.67;0.83;;;;;;;;;;5074412;28;20252;-84
2022/09/28 09:25:01;;;;;;;3.00;0.90;;;;;;;;;;5074100;28;20178;-85
2022/09/28 09:27:47;;;;;;;1.43;0.90;;;;;;;;;;5074113;28;20167;-84
2022/09/28 09:30:18;;;;;;;1.43;0.90;;;;;;;;;;5054194;28;20244;-89
2022/09/28 09:32:58;;;;;;;1.60;0.83;;;;;;;;;;5073539;28;20176;-88
2022/09/28 09:35:33;;;;;;;1.93;0.90;;;;;;;;;;5075371;28;20186;-88
2022/09/28 09:38:16;;;;;;;1.73;0.90;;;;;;;;;;5073896;28;20206;-88
2022/09/28 09:40:52;;;;;;;1.10;1.00;;;;;;;;;;5073807;28;20266;-88
2022/09/28 09:43:27;;;;;;;1.13;0.60;;;;;;;;;;5074848;28;20260;-88
2022/09/28 09:45:56;;;;;;;0.90;0.70;;;;;;;;;;5073689;28;20178;-88
2022/09/28 09:48:43;;;;;;;1.87;0.80;;;;;;;;;;5074088;28;20269;-82
2022/09/28 09:51:32;;;;;;;1.40;0.70;;;;;;;;;;5073498;28;20262;-82
2022/09/28 09:53:59;;;;;;;0.50;0.50;;;;;;;;;;5068086;28;20250;-82
2022/09/28 09:56:33;;;;;;;2.67;0.80;;;;;;;;;;5074651;28;20183;-82
2022/09/28 09:59:03;;;;;;;2.00;0.80;;;;;;;;;;5073483;28;20257;-81
2022/09/28 10:01:34;;;;;;;3.93;0.70;;;;;;;;;;5073648;28;20184;-82
2022/09/28 10:04:01;;;;;;;0.97;0.70;;;;;;;;;;5073412;28;20187;-86
2022/09/28 10:06:31;;;;;;;1.40;0.90;;;;;;;;;;5073388;28;20266;-86
2022/09/28 10:09:03;;;;;;;0.83;0.77;;;;;;;;;;5073455;28;20179;-86
2022/09/28 10:11:32;;;;;;;1.10;0.67;;;;;;;;;;5073625;28;20221;-86
2022/09/28 10:13:59;;;;;;;1.47;0.90;;;;;;;;;;5074369;28;20171;-85
2022/09/28 10:16:25;;;;;;;1.37;0.77;;;;;;;;;;5073108;28;20175;-86
2022/09/28 10:18:51;;;;;;;1.50;1.00;;;;;;;;;;5073175;28;20171;-86
2022/09/28 10:21:19;;;;;;;1.70;0.90;;;;;;;;;;5056886;28;20184;-85
2022/09/28 10:23:46;;;;;;;1.87;0.70;;;;;;;;;;5072899;28;20203;-85
2022/09/28 10:26:15;;;;;;;1.30;0.80;;;;;;;;;;5057210;28;20267;-87
2022/09/28 10:28:50;;;;;;;1.30;0.90;;;;;;;;;;5073158;28;20167;-89
2022/09/28 10:31:36;;;;;;;3.37;0.80;;;;;;;;;;5073141;28;20182;-87
2022/09/28 10:34:03;;;;;;;2.17;0.83;;;;;;;;;;5074622;28;20173;-88
2022/09/28 10:36:37;;;;;;;2.60;0.90;;;;;;;;;;5073078;28;20175;-82
2022/09/28 10:39:03;;;;;;;2.03;0.70;;;;;;;;;;5073249;28;20220;-82
2022/09/28 10:41:30;;;;;;;1.97;0.80;;;;;;;;;;5076313;28;20251;-82
2022/09/28 10:44:09;;;;;;;1.80;0.90;;;;;;;;;;5078142;28;20252;-81
2022/09/28 10:46:36;;;;;;;2.33;0.83;;;;;;;;;;5077172;28;20187;-81
2022/09/28 10:49:03;;;;;;;1.03;0.70;;;;;;;;;;5076982;28;20175;-81
2022/09/28 10:51:39;;;;;;;1.20;0.70;;;;;;;;;;5077074;28;20250;-81
2022/09/28 10:54:13;;;;;;;1.10;0.70;;;;;;;;;;5076850;28;20226;-87
2022/09/28 10:56:40;;;;;;;2.67;0.80;;;;;;;;;;5076922;28;20176;-87
2022/09/28 10:59:23;;;;;;;1.23;0.77;;;;;;;;;;5077352;28;20301;-88
2022/09/28 11:01:52;;;;;;;1.63;0.90;;;;;;;;;;5076963;28;20195;-88
2022/09/28 11:04:20;;;;;;;1.23;0.70;;;;;;;;;;5076957;28;20196;-87
2022/09/28 11:06:46;;;;;;;1.67;0.70;;;;;;;;;;5077834;28;20171;-89
2022/09/28 11:09:24;;;;;;;1.07;0.70;;;;;;;;;;5060291;28;20302;-89
2022/09/28 11:11:50;;;;;;;1.07;0.70;;;;;;;;;;5076717;28;20179;-85
2022/09/28 11:14:34;;;;;;;1.23;0.70;;;;;;;;;;5078890;28;20179;-81
2022/09/28 11:17:18;;;;;;;1.17;0.80;;;;;;;;;;5076630;28;20186;-81
2022/09/28 11:19:45;;;;;;;2.57;0.90;;;;;;;;;;5076636;28;20271;-81
2022/09/28 11:22:25;;;;;;;1.20;0.93;;;;;;;;;;5059857;28;20211;-81
2022/09/28 11:24:52;;;;;;;2.57;0.80;;;;;;;;;;5075834;28;20182;-81
2022/09/28 11:27:23;;;;;;;2.77;1.00;;;;;;;;;;5076017;28;20176;-89
2022/09/28 11:29:55;;;;;;;1.80;1.00;;;;;;;;;;5076102;28;20269;-87
2022/09/28 11:32:23;;;;;;;1.27;0.87;;;;;;;;;;5077185;28;20176;-87
2022/09/28 11:34:50;;;;;;;2.10;0.90;;;;;;;;;;5075896;28;20190;-81
2022/09/28 11:37:26;;;;;;;2.13;1.00;;;;;;;;;;5075881;28;20176;-81
2022/09/28 11:39:55;;;;;;;1.20;0.80;;;;;;;;;;5076827;28;20171;-81
2022/09/28 11:42:24;;;;;;;1.00;0.90;;;;;;;;;;5075743;28;20265;-81
2022/09/28 11:44:54;;;;;;;2.80;0.90;;;;;;;;;;5075724;28;20247;-85
2022/09/28 11:47:37;;;;;;;0.97;0.70;;;;;;;;;;5075603;28;20206;-85
2022/09/28 11:50:17;;;;;;;1.87;0.70;;;;;;;;;;5072346;28;20180;-85
2022/09/28 11:52:43;;;;;;;1.33;0.80;;;;;;;;;;5064227;28;20179;-85
2022/09/28 11:55:15;;;;;;;1.73;0.80;;;;;;;;;;5065517;28;20226;-85
2022/09/28 11:57:42;;;;;;;1.53;0.90;;;;;;;;;;5064866;28;20184;-85
2022/09/28 12:00:11;;;;;;;1.33;0.67;;;;;;;;;;5056104;28;20176;-89
2022/09/28 12:02:58;;;;;;;0.60;0.60;;;;;;;;;;5056042;28;20207;-87
2022/09/28 12:05:30;;;;;;;1.67;0.63;;;;;;;;;;5055637;28;20175;-89
2022/09/28 12:07:58;;;;;;;0.77;0.77;;;;;;;;;;5055563;28;20172;-87
2022/09/28 12:10:47;;;;;;;1.60;0.80;;;;;;;;;;5056917;28;20168;-88
2022/09/28 12:13:24;;;;;;;1.27;0.70;;;;;;;;;;5056880;28;20193;-88
2022/09/28 12:16:04;;;;;;;0.60;0.60;;;;;;;;;;5056832;28;20191;-88
2022/09/28 12:18:38;;;;;;;0.77;0.70;;;;;;;;;;5055565;28;20214;-84
2022/09/28 12:21:26;;;;;;;0.97;0.80;;;;;;;;;;5055352;28;20180;-81
2022/09/28 12:23:56;;;;;;;1.23;0.90;;;;;;;;;;5055144;28;20207;-81
2022/09/28 12:26:31;;;;;;;1.67;0.97;;;;;;;;;;5055308;28;20179;-81
2022/09/28 12:28:58;;;;;;;0.83;0.70;;;;;;;;;;5055637;28;20266;-82
2022/09/28 12:31:45;;;;;;;0.77;0.60;;;;;;;;;;5055139;28;20179;-82
2022/09/28 12:34:11;;;;;;;0.60;0.60;;;;;;;;;;5055998;28;20198;-87
2022/09/28 12:36:39;;;;;;;2.47;0.93;;;;;;;;;;5055204;28;20278;-86
2022/09/28 12:39:23;;;;;;;1.43;0.60;;;;;;;;;;5056441;28;20172;-87
2022/09/28 12:41:56;;;;;;;0.80;0.60;;;;;;;;;;5056293;28;20183;-87
2022/09/28 12:44:25;;;;;;;0.50;0.50;;;;;;;;;;5055713;28;20180;-88
2022/09/28 12:47:04;;;;;;;0.60;0.60;;;;;;;;;;5055146;28;20172;-88
2022/09/28 12:49:30;;;;;;;1.00;0.70;;;;;;;;;;5054835;28;20206;-87
2022/09/28 12:52:01;;;;;;;1.37;0.70;;;;;;;;;;5055247;28;20180;-84
2022/09/28 12:54:39;;;;;;;0.70;0.60;;;;;;;;;;5055666;28;20310;-84
2022/09/28 12:57:19;;;;;;;2.50;0.60;;;;;;;;;;5054962;28;20283;-84
2022/09/28 12:59:52;;;;;;;1.77;0.70;;;;;;;;;;5055746;28;20180;-84
2022/09/28 13:02:27;;;;;;;0.83;0.60;;;;;;;;;;5054932;28;20233;-84
2022/09/28 13:04:59;;;;;;;0.70;0.70;;;;;;;;;;5054453;28;20175;-84
2022/09/28 13:07:32;;;;;;;1.17;0.70;;;;;;;;;;5053729;28;20172;-82
2022/09/28 13:10:05;;;;;;;1.50;0.80;;;;;;;;;;5054418;28;20176;-82
2022/09/28 13:12:31;;;;;;;1.33;0.80;;;;;;;;;;5054461;28;20179;-82
2022/09/28 13:14:57;;;;;;;1.30;0.70;;;;;;;;;;5054368;28;20180;-82
2022/09/28 13:17:29;;;;;;;0.83;0.60;;;;;;;;;;5054295;28;20180;-82
2022/09/28 13:19:55;;;;;;;0.87;0.70;;;;;;;;;;5054048;28;20187;-82
2022/09/28 13:22:26;;;;;;;1.43;0.70;;;;;;;;;;5054056;28;20306;-84
2022/09/28 13:24:54;;;;;;;1.13;0.63;;;;;;;;;;5055828;28;20176;-84
2022/09/28 13:27:30;;;;;;;0.73;0.70;;;;;;;;;;5073938;28;20174;-82
2022/09/28 13:29:59;;;;;;;1.87;0.90;;;;;;;;;;5074356;28;20229;-84
2022/09/28 13:32:28;;;;;;;1.50;0.80;;;;;;;;;;5074010;28;20179;-84
2022/09/28 13:34:55;;;;;;;1.83;0.70;;;;;;;;;;5074272;28;20179;-84
2022/09/28 13:37:23;;;;;;;0.80;0.80;;;;;;;;;;5057189;28;20179;-85
2022/09/28 13:39:55;;;;;;;0.93;0.73;;;;;;;;;;5073757;28;20179;-84
2022/09/28 13:42:40;;;;;;;1.27;0.80;;;;;;;;;;5057541;28;20222;-85
2022/09/28 13:45:08;;;;;;;1.27;0.73;;;;;;;;;;5073620;28;20203;-85
2022/09/28 13:47:53;;;;;;;0.73;0.73;;;;;;;;;;5074079;28;20179;-84
2022/09/28 13:50:25;;;;;;;1.40;0.77;;;;;;;;;;5073578;28;20185;-85
2022/09/28 13:53:11;;;;;;;1.23;0.90;;;;;;;;;;5057226;28;20203;-84
2022/09/28 13:55:49;;;;;;;1.70;0.70;;;;;;;;;;5074546;28;20268;-84
2022/09/28 13:58:50;;;;;;;1.30;0.80;;;;;;;;;;5073820;28;20278;-84
2022/09/28 14:01:20;;;;;;;2.23;0.70;;;;;;;;;;5016515;28;20275;-85
2022/09/28 14:04:04;;;;;;;1.80;0.67;;;;;;;;;;5062846;28;20256;-84
2022/09/28 14:06:31;;;;;;;1.00;0.83;;;;;;;;;;5073353;28;20187;-84
2022/09/28 14:09:06;;;;;;;1.33;0.70;;;;;;;;;;5056827;28;20282;-84
2022/09/28 14:11:35;;;;;;;0.60;0.60;;;;;;;;;;5073492;28;20308;-83
2022/09/28 14:14:04;;;;;;;1.00;0.70;;;;;;;;;;5073969;28;20191;-86
2022/09/28 14:16:31;;;;;;;1.43;0.90;;;;;;;;;;5073377;28;20179;-86
2022/09/28 14:19:00;;;;;;;1.10;0.90;;;;;;;;;;5074283;28;20178;-87
2022/09/28 14:21:29;;;;;;;1.47;1.00;;;;;;;;;;5073180;28;20179;-86
2022/09/28 14:24:10;;;;;;;1.10;1.00;;;;;;;;;;5073855;28;20211;-87
2022/09/28 14:26:55;;;;;;;2.50;1.10;;;;;;;;;;5073194;28;20175;-87
2022/09/28 14:29:28;;;;;;;2.07;1.20;;;;;;;;;;5073486;28;20175;-87
2022/09/28 14:31:55;;;;;;;1.73;0.93;;;;;;;;;;5073140;28;20180;-84
2022/09/28 14:34:30;;;;;;;2.13;1.30;;;;;;;;;;5073132;28;20179;-84
2022/09/28 14:42:28;;;;;;;2.30;1.10;;;;;;;;;;5074323;28;20217;-84
2022/09/28 14:45:05;;;;;;;1.93;0.90;;;;;;;;;;5073089;28;20182;-84
2022/09/28 14:47:37;;;;;;;1.53;0.93;;;;;;;;;;5074103;28;20168;-84
2022/09/28 14:50:26;;;;;;;1.63;1.10;;;;;;;;;;5072933;28;20198;-84
2022/09/28 14:52:53;;;;;;;0.93;0.80;;;;;;;;;;5068764;28;20203;-84
2022/09/28 14:55:28;;;;;;;1.73;1.10;;;;;;;;;;5072720;28;20219;-84
2022/09/28 14:57:57;;;;;;;1.73;0.90;;;;;;;;;;5073218;28;20209;-84
2022/09/28 15:00:25;;;;;;;1.80;1.20;;;;;;;;;;5073016;28;20189;-84